sensor_id;sensor_type;location;lat;lon;timestamp;P1;durP1;ratioP1;P2;durP2;ratioP2
15142;SDS011;7672;50.834;6.286;2023-02-28T00:01:28;4.57;;;2.70;;
15142;SDS011;7672;50.834;6.286;2023-02-28T00:03:56;3.70;;;2.60;;
15142;SDS011;7672;50.834;6.286;2023-02-28T00:06:23;3.23;;;2.43;;
15142;SDS011;7672;50.834;6.286;2023-02-28T00:08:51;3.17;;;2.43;;
15142;SDS011;7672;50.834;6.286;2023-02-28T00:11:17;5.87;;;2.70;;
15142;SDS011;7672;50.834;6.286;2023-02-28T00:13:45;4.20;;;2.47;;
15142;SDS011;7672;50.834;6.286;2023-02-28T00:16:17;4.20;;;2.47;;
15142;SDS011;7672;50.834;6.286;2023-02-28T00:18:47;4.07;;;2.60;;
15142;SDS011;7672;50.834;6.286;2023-02-28T00:21:16;3.13;;;2.50;;
15142;SDS011;7672;50.834;6.286;2023-02-28T00:23:44;7.40;;;2.50;;
15142;SDS011;7672;50.834;6.286;2023-02-28T00:26:11;6.50;;;2.70;;
15142;SDS011;7672;50.834;6.286;2023-02-28T00:28:38;4.20;;;2.67;;
15142;SDS011;7672;50.834;6.286;2023-02-28T00:31:05;2.60;;;2.40;;
15142;SDS011;7672;50.834;6.286;2023-02-28T00:33:32;4.93;;;2.80;;
15142;SDS011;7672;50.834;6.286;2023-02-28T00:36:05;8.97;;;2.53;;
15142;SDS011;7672;50.834;6.286;2023-02-28T00:38:36;4.13;;;2.40;;
15142;SDS011;7672;50.834;6.286;2023-02-28T00:41:04;5.40;;;2.83;;
15142;SDS011;7672;50.834;6.286;2023-02-28T00:43:33;11.87;;;3.03;;
15142;SDS011;7672;50.834;6.286;2023-02-28T00:46:01;5.20;;;2.40;;
15142;SDS011;7672;50.834;6.286;2023-02-28T00:48:30;5.43;;;2.70;;
15142;SDS011;7672;50.834;6.286;2023-02-28T00:50:57;6.40;;;2.80;;
15142;SDS011;7672;50.834;6.286;2023-02-28T00:53:23;9.17;;;3.00;;
15142;SDS011;7672;50.834;6.286;2023-02-28T00:55:50;4.30;;;2.53;;
15142;SDS011;7672;50.834;6.286;2023-02-28T00:58:17;2.43;;;2.23;;
15142;SDS011;7672;50.834;6.286;2023-02-28T01:00:44;7.43;;;2.33;;
15142;SDS011;7672;50.834;6.286;2023-02-28T01:03:18;2.70;;;2.00;;
15142;SDS011;7672;50.834;6.286;2023-02-28T01:05:46;5.10;;;2.20;;
15142;SDS011;7672;50.834;6.286;2023-02-28T01:08:14;3.47;;;2.27;;
15142;SDS011;7672;50.834;6.286;2023-02-28T01:10:41;5.50;;;2.17;;
15142;SDS011;7672;50.834;6.286;2023-02-28T01:13:08;2.37;;;2.10;;
15142;SDS011;7672;50.834;6.286;2023-02-28T01:15:36;4.43;;;2.40;;
15142;SDS011;7672;50.834;6.286;2023-02-28T01:18:05;3.43;;;2.00;;
15142;SDS011;7672;50.834;6.286;2023-02-28T01:20:32;3.83;;;2.07;;
15142;SDS011;7672;50.834;6.286;2023-02-28T01:22:59;2.97;;;2.20;;
15142;SDS011;7672;50.834;6.286;2023-02-28T01:25:25;3.53;;;2.40;;
15142;SDS011;7672;50.834;6.286;2023-02-28T01:27:52;5.10;;;2.40;;
15142;SDS011;7672;50.834;6.286;2023-02-28T01:30:19;6.37;;;2.47;;
15142;SDS011;7672;50.834;6.286;2023-02-28T01:32:46;3.80;;;2.37;;
15142;SDS011;7672;50.834;6.286;2023-02-28T01:35:13;5.17;;;2.20;;
15142;SDS011;7672;50.834;6.286;2023-02-28T01:37:40;3.53;;;2.40;;
15142;SDS011;7672;50.834;6.286;2023-02-28T01:40:07;5.37;;;2.67;;
15142;SDS011;7672;50.834;6.286;2023-02-28T01:42:35;4.70;;;3.03;;
15142;SDS011;7672;50.834;6.286;2023-02-28T01:47:45;9.43;;;2.60;;
15142;SDS011;7672;50.834;6.286;2023-02-28T01:50:18;5.23;;;2.63;;
15142;SDS011;7672;50.834;6.286;2023-02-28T01:52:49;3.67;;;2.30;;
15142;SDS011;7672;50.834;6.286;2023-02-28T01:55:19;5.90;;;2.43;;
15142;SDS011;7672;50.834;6.286;2023-02-28T01:57:51;7.87;;;2.17;;
15142;SDS011;7672;50.834;6.286;2023-02-28T02:00:23;7.67;;;2.53;;
15142;SDS011;7672;50.834;6.286;2023-02-28T02:02:56;3.43;;;2.30;;
15142;SDS011;7672;50.834;6.286;2023-02-28T02:05:32;3.70;;;2.40;;
15142;SDS011;7672;50.834;6.286;2023-02-28T02:08:05;6.33;;;2.50;;
15142;SDS011;7672;50.834;6.286;2023-02-28T02:10:42;4.30;;;2.03;;
15142;SDS011;7672;50.834;6.286;2023-02-28T02:28:18;7.33;;;2.40;;
15142;SDS011;7672;50.834;6.286;2023-02-28T02:43:02;3.73;;;2.77;;
15142;SDS011;7672;50.834;6.286;2023-02-28T02:45:56;4.00;;;2.20;;
15142;SDS011;7672;50.834;6.286;2023-02-28T02:48:32;6.50;;;2.70;;
15142;SDS011;7672;50.834;6.286;2023-02-28T02:51:06;8.13;;;2.67;;
15142;SDS011;7672;50.834;6.286;2023-02-28T02:53:42;5.10;;;2.43;;
15142;SDS011;7672;50.834;6.286;2023-02-28T02:56:19;4.47;;;2.60;;
15142;SDS011;7672;50.834;6.286;2023-02-28T02:58:53;3.63;;;2.33;;
15142;SDS011;7672;50.834;6.286;2023-02-28T03:01:27;4.77;;;2.47;;
15142;SDS011;7672;50.834;6.286;2023-02-28T03:03:59;7.27;;;2.73;;
15142;SDS011;7672;50.834;6.286;2023-02-28T03:06:30;12.43;;;2.77;;
15142;SDS011;7672;50.834;6.286;2023-02-28T03:08:57;5.77;;;2.70;;
15142;SDS011;7672;50.834;6.286;2023-02-28T03:11:26;2.67;;;2.20;;
15142;SDS011;7672;50.834;6.286;2023-02-28T03:14:07;14.00;;;3.20;;
15142;SDS011;7672;50.834;6.286;2023-02-28T03:17:16;6.70;;;2.73;;
15142;SDS011;7672;50.834;6.286;2023-02-28T03:22:57;5.53;;;2.57;;
15142;SDS011;7672;50.834;6.286;2023-02-28T03:25:48;4.20;;;2.50;;
15142;SDS011;7672;50.834;6.286;2023-02-28T03:31:27;3.30;;;2.73;;
15142;SDS011;7672;50.834;6.286;2023-02-28T03:34:01;2.70;;;2.43;;
15142;SDS011;7672;50.834;6.286;2023-02-28T03:36:57;4.27;;;2.60;;
15142;SDS011;7672;50.834;6.286;2023-02-28T03:39:37;3.30;;;2.10;;
15142;SDS011;7672;50.834;6.286;2023-02-28T03:42:12;2.70;;;2.50;;
15142;SDS011;7672;50.834;6.286;2023-02-28T03:44:46;4.83;;;2.47;;
15142;SDS011;7672;50.834;6.286;2023-02-28T03:50:08;5.07;;;2.47;;
15142;SDS011;7672;50.834;6.286;2023-02-28T03:52:53;3.20;;;2.37;;
15142;SDS011;7672;50.834;6.286;2023-02-28T03:55:38;8.07;;;2.73;;
15142;SDS011;7672;50.834;6.286;2023-02-28T03:58:27;5.77;;;2.73;;
15142;SDS011;7672;50.834;6.286;2023-02-28T04:01:10;3.00;;;2.60;;
15142;SDS011;7672;50.834;6.286;2023-02-28T04:03:45;3.83;;;2.20;;
15142;SDS011;7672;50.834;6.286;2023-02-28T04:06:19;3.47;;;2.23;;
15142;SDS011;7672;50.834;6.286;2023-02-28T04:08:48;3.20;;;2.20;;
15142;SDS011;7672;50.834;6.286;2023-02-28T04:14:03;5.00;;;2.80;;
15142;SDS011;7672;50.834;6.286;2023-02-28T04:16:31;2.17;;;2.00;;
15142;SDS011;7672;50.834;6.286;2023-02-28T04:19:02;3.00;;;2.73;;
15142;SDS011;7672;50.834;6.286;2023-02-28T04:21:33;3.50;;;2.47;;
15142;SDS011;7672;50.834;6.286;2023-02-28T04:24:10;8.33;;;2.50;;
15142;SDS011;7672;50.834;6.286;2023-02-28T04:26:44;3.80;;;2.47;;
15142;SDS011;7672;50.834;6.286;2023-02-28T04:29:18;5.03;;;2.83;;
15142;SDS011;7672;50.834;6.286;2023-02-28T04:31:56;3.60;;;2.07;;
15142;SDS011;7672;50.834;6.286;2023-02-28T04:34:26;5.57;;;2.00;;
15142;SDS011;7672;50.834;6.286;2023-02-28T04:36:56;7.47;;;2.20;;
15142;SDS011;7672;50.834;6.286;2023-02-28T04:39:40;4.10;;;2.57;;
15142;SDS011;7672;50.834;6.286;2023-02-28T04:42:08;3.73;;;2.60;;
15142;SDS011;7672;50.834;6.286;2023-02-28T04:44:35;4.23;;;2.63;;
15142;SDS011;7672;50.834;6.286;2023-02-28T04:47:02;3.70;;;2.50;;
15142;SDS011;7672;50.834;6.286;2023-02-28T04:49:29;2.50;;;2.30;;
15142;SDS011;7672;50.834;6.286;2023-02-28T04:51:56;3.70;;;2.20;;
15142;SDS011;7672;50.834;6.286;2023-02-28T04:54:22;4.17;;;2.83;;
15142;SDS011;7672;50.834;6.286;2023-02-28T04:56:50;2.20;;;2.00;;
15142;SDS011;7672;50.834;6.286;2023-02-28T04:59:17;3.47;;;2.57;;
15142;SDS011;7672;50.834;6.286;2023-02-28T05:01:47;3.13;;;2.57;;
15142;SDS011;7672;50.834;6.286;2023-02-28T05:04:15;5.67;;;2.80;;
15142;SDS011;7672;50.834;6.286;2023-02-28T05:06:42;4.10;;;2.50;;
15142;SDS011;7672;50.834;6.286;2023-02-28T05:09:09;5.73;;;2.67;;
15142;SDS011;7672;50.834;6.286;2023-02-28T05:11:39;2.50;;;2.20;;
15142;SDS011;7672;50.834;6.286;2023-02-28T05:14:10;2.50;;;2.30;;
15142;SDS011;7672;50.834;6.286;2023-02-28T05:16:39;3.97;;;2.40;;
15142;SDS011;7672;50.834;6.286;2023-02-28T05:19:06;3.57;;;2.37;;
15142;SDS011;7672;50.834;6.286;2023-02-28T05:21:34;5.00;;;2.17;;
15142;SDS011;7672;50.834;6.286;2023-02-28T05:24:08;3.47;;;2.27;;
15142;SDS011;7672;50.834;6.286;2023-02-28T05:26:38;4.77;;;2.50;;
15142;SDS011;7672;50.834;6.286;2023-02-28T05:29:09;3.57;;;2.70;;
15142;SDS011;7672;50.834;6.286;2023-02-28T05:31:36;4.67;;;2.50;;
15142;SDS011;7672;50.834;6.286;2023-02-28T05:34:04;2.93;;;2.50;;
15142;SDS011;7672;50.834;6.286;2023-02-28T05:36:32;3.17;;;2.63;;
15142;SDS011;7672;50.834;6.286;2023-02-28T05:38:59;3.07;;;2.73;;
15142;SDS011;7672;50.834;6.286;2023-02-28T05:41:26;3.03;;;2.60;;
15142;SDS011;7672;50.834;6.286;2023-02-28T05:43:53;5.40;;;3.17;;
15142;SDS011;7672;50.834;6.286;2023-02-28T05:46:20;6.47;;;3.10;;
15142;SDS011;7672;50.834;6.286;2023-02-28T05:48:47;3.67;;;2.83;;
15142;SDS011;7672;50.834;6.286;2023-02-28T05:51:15;6.27;;;3.10;;
15142;SDS011;7672;50.834;6.286;2023-02-28T05:53:43;4.20;;;2.93;;
15142;SDS011;7672;50.834;6.286;2023-02-28T05:56:10;4.43;;;2.90;;
15142;SDS011;7672;50.834;6.286;2023-02-28T05:58:37;5.93;;;2.73;;
15142;SDS011;7672;50.834;6.286;2023-02-28T06:04:15;5.90;;;3.43;;
15142;SDS011;7672;50.834;6.286;2023-02-28T06:06:56;3.93;;;2.67;;
15142;SDS011;7672;50.834;6.286;2023-02-28T06:09:23;6.53;;;2.97;;
15142;SDS011;7672;50.834;6.286;2023-02-28T06:11:51;8.43;;;3.80;;
15142;SDS011;7672;50.834;6.286;2023-02-28T06:14:18;8.03;;;3.10;;
15142;SDS011;7672;50.834;6.286;2023-02-28T06:16:46;7.87;;;3.33;;
15142;SDS011;7672;50.834;6.286;2023-02-28T06:19:13;4.50;;;3.33;;
15142;SDS011;7672;50.834;6.286;2023-02-28T06:21:41;5.33;;;2.90;;
15142;SDS011;7672;50.834;6.286;2023-02-28T06:24:09;8.40;;;3.57;;
15142;SDS011;7672;50.834;6.286;2023-02-28T06:26:36;5.53;;;2.87;;
15142;SDS011;7672;50.834;6.286;2023-02-28T06:29:03;16.17;;;3.47;;
15142;SDS011;7672;50.834;6.286;2023-02-28T06:31:30;11.50;;;3.37;;
15142;SDS011;7672;50.834;6.286;2023-02-28T06:33:58;7.27;;;3.50;;
15142;SDS011;7672;50.834;6.286;2023-02-28T06:36:24;6.33;;;3.87;;
15142;SDS011;7672;50.834;6.286;2023-02-28T06:38:51;7.07;;;3.23;;
15142;SDS011;7672;50.834;6.286;2023-02-28T06:41:24;5.30;;;3.37;;
15142;SDS011;7672;50.834;6.286;2023-02-28T06:43:53;4.77;;;3.30;;
15142;SDS011;7672;50.834;6.286;2023-02-28T06:46:21;10.57;;;3.50;;
15142;SDS011;7672;50.834;6.286;2023-02-28T06:48:48;6.90;;;3.20;;
15142;SDS011;7672;50.834;6.286;2023-02-28T06:51:17;6.00;;;2.90;;
15142;SDS011;7672;50.834;6.286;2023-02-28T06:53:50;6.73;;;3.30;;
15142;SDS011;7672;50.834;6.286;2023-02-28T06:56:17;4.57;;;3.30;;
15142;SDS011;7672;50.834;6.286;2023-02-28T06:58:47;5.93;;;3.40;;
15142;SDS011;7672;50.834;6.286;2023-02-28T07:01:16;9.93;;;3.57;;
15142;SDS011;7672;50.834;6.286;2023-02-28T07:03:44;7.93;;;3.20;;
15142;SDS011;7672;50.834;6.286;2023-02-28T07:06:11;8.83;;;3.13;;
15142;SDS011;7672;50.834;6.286;2023-02-28T07:08:38;5.17;;;3.27;;
15142;SDS011;7672;50.834;6.286;2023-02-28T07:11:07;11.00;;;3.23;;
15142;SDS011;7672;50.834;6.286;2023-02-28T07:13:33;10.60;;;3.53;;
15142;SDS011;7672;50.834;6.286;2023-02-28T07:16:04;12.27;;;3.13;;
15142;SDS011;7672;50.834;6.286;2023-02-28T07:18:35;6.53;;;3.53;;
15142;SDS011;7672;50.834;6.286;2023-02-28T07:21:04;12.53;;;3.17;;
15142;SDS011;7672;50.834;6.286;2023-02-28T07:23:35;14.63;;;4.00;;
15142;SDS011;7672;50.834;6.286;2023-02-28T07:26:04;7.80;;;3.30;;
15142;SDS011;7672;50.834;6.286;2023-02-28T07:28:33;12.40;;;3.27;;
15142;SDS011;7672;50.834;6.286;2023-02-28T07:31:04;5.80;;;2.83;;
15142;SDS011;7672;50.834;6.286;2023-02-28T07:33:33;6.23;;;2.80;;
15142;SDS011;7672;50.834;6.286;2023-02-28T07:36:04;6.80;;;3.10;;
15142;SDS011;7672;50.834;6.286;2023-02-28T07:38:42;3.47;;;2.43;;
15142;SDS011;7672;50.834;6.286;2023-02-28T07:41:14;3.10;;;2.50;;
15142;SDS011;7672;50.834;6.286;2023-02-28T07:43:43;4.27;;;2.60;;
15142;SDS011;7672;50.834;6.286;2023-02-28T07:46:11;3.67;;;2.77;;
15142;SDS011;7672;50.834;6.286;2023-02-28T07:48:41;6.10;;;2.97;;
15142;SDS011;7672;50.834;6.286;2023-02-28T07:51:09;3.83;;;2.50;;
15142;SDS011;7672;50.834;6.286;2023-02-28T07:53:35;5.60;;;2.57;;
15142;SDS011;7672;50.834;6.286;2023-02-28T07:56:02;5.20;;;2.80;;
15142;SDS011;7672;50.834;6.286;2023-02-28T07:58:30;3.70;;;2.77;;
15142;SDS011;7672;50.834;6.286;2023-02-28T08:00:57;4.60;;;3.37;;
15142;SDS011;7672;50.834;6.286;2023-02-28T08:03:33;5.87;;;3.23;;
15142;SDS011;7672;50.834;6.286;2023-02-28T08:06:00;8.73;;;2.83;;
15142;SDS011;7672;50.834;6.286;2023-02-28T08:08:28;7.20;;;3.20;;
15142;SDS011;7672;50.834;6.286;2023-02-28T08:11:00;6.27;;;3.03;;
15142;SDS011;7672;50.834;6.286;2023-02-28T08:13:29;6.77;;;3.23;;
15142;SDS011;7672;50.834;6.286;2023-02-28T08:15:56;7.00;;;3.40;;
15142;SDS011;7672;50.834;6.286;2023-02-28T08:18:23;6.00;;;3.23;;
15142;SDS011;7672;50.834;6.286;2023-02-28T08:20:50;5.37;;;3.10;;
15142;SDS011;7672;50.834;6.286;2023-02-28T08:23:17;4.00;;;2.87;;
15142;SDS011;7672;50.834;6.286;2023-02-28T08:25:44;7.50;;;2.90;;
15142;SDS011;7672;50.834;6.286;2023-02-28T08:28:19;6.03;;;2.93;;
15142;SDS011;7672;50.834;6.286;2023-02-28T08:30:46;4.93;;;2.77;;
15142;SDS011;7672;50.834;6.286;2023-02-28T08:33:12;3.60;;;2.67;;
15142;SDS011;7672;50.834;6.286;2023-02-28T08:35:39;2.83;;;2.50;;
15142;SDS011;7672;50.834;6.286;2023-02-28T08:38:06;4.20;;;2.70;;
15142;SDS011;7672;50.834;6.286;2023-02-28T08:40:32;3.63;;;2.37;;
15142;SDS011;7672;50.834;6.286;2023-02-28T08:42:59;3.93;;;2.70;;
15142;SDS011;7672;50.834;6.286;2023-02-28T08:45:26;5.20;;;2.80;;
15142;SDS011;7672;50.834;6.286;2023-02-28T08:47:56;7.23;;;2.47;;
15142;SDS011;7672;50.834;6.286;2023-02-28T08:50:22;4.77;;;2.80;;
15142;SDS011;7672;50.834;6.286;2023-02-28T08:52:49;6.57;;;3.00;;
15142;SDS011;7672;50.834;6.286;2023-02-28T08:55:16;4.87;;;2.53;;
15142;SDS011;7672;50.834;6.286;2023-02-28T08:57:43;5.00;;;2.80;;
15142;SDS011;7672;50.834;6.286;2023-02-28T09:00:10;3.60;;;2.90;;
15142;SDS011;7672;50.834;6.286;2023-02-28T09:02:39;5.97;;;2.77;;
15142;SDS011;7672;50.834;6.286;2023-02-28T09:05:08;3.47;;;2.60;;
15142;SDS011;7672;50.834;6.286;2023-02-28T09:07:35;3.27;;;2.67;;
15142;SDS011;7672;50.834;6.286;2023-02-28T09:10:02;4.20;;;2.50;;
15142;SDS011;7672;50.834;6.286;2023-02-28T09:12:32;4.60;;;2.60;;
15142;SDS011;7672;50.834;6.286;2023-02-28T09:15:01;2.60;;;2.40;;
15142;SDS011;7672;50.834;6.286;2023-02-28T09:17:29;8.50;;;3.30;;
15142;SDS011;7672;50.834;6.286;2023-02-28T09:19:56;5.33;;;2.70;;
15142;SDS011;7672;50.834;6.286;2023-02-28T09:22:24;3.40;;;2.10;;
15142;SDS011;7672;50.834;6.286;2023-02-28T09:24:51;6.93;;;2.10;;
15142;SDS011;7672;50.834;6.286;2023-02-28T09:27:18;5.20;;;2.20;;
15142;SDS011;7672;50.834;6.286;2023-02-28T09:29:44;2.67;;;2.47;;
15142;SDS011;7672;50.834;6.286;2023-02-28T09:32:11;3.47;;;2.10;;
15142;SDS011;7672;50.834;6.286;2023-02-28T09:34:38;4.10;;;2.00;;
15142;SDS011;7672;50.834;6.286;2023-02-28T09:37:05;2.47;;;1.83;;
15142;SDS011;7672;50.834;6.286;2023-02-28T09:39:32;3.33;;;2.17;;
15142;SDS011;7672;50.834;6.286;2023-02-28T09:41:59;3.70;;;1.83;;
15142;SDS011;7672;50.834;6.286;2023-02-28T09:44:38;5.27;;;1.70;;
15142;SDS011;7672;50.834;6.286;2023-02-28T09:47:14;6.30;;;2.07;;
15142;SDS011;7672;50.834;6.286;2023-02-28T09:50:00;2.00;;;1.80;;
15142;SDS011;7672;50.834;6.286;2023-02-28T09:52:49;3.23;;;1.90;;
15142;SDS011;7672;50.834;6.286;2023-02-28T09:55:22;4.10;;;1.80;;
15142;SDS011;7672;50.834;6.286;2023-02-28T09:58:15;5.43;;;1.57;;
15142;SDS011;7672;50.834;6.286;2023-02-28T10:04:28;3.33;;;1.90;;
15142;SDS011;7672;50.834;6.286;2023-02-28T10:06:52;7.50;;;1.97;;
15142;SDS011;7672;50.834;6.286;2023-02-28T10:12:01;1.80;;;1.70;;
15142;SDS011;7672;50.834;6.286;2023-02-28T10:14:33;2.53;;;2.00;;
15142;SDS011;7672;50.834;6.286;2023-02-28T10:17:12;1.83;;;1.70;;
15142;SDS011;7672;50.834;6.286;2023-02-28T10:22:17;2.20;;;2.00;;
15142;SDS011;7672;50.834;6.286;2023-02-28T10:24:58;3.07;;;1.83;;
15142;SDS011;7672;50.834;6.286;2023-02-28T10:27:32;3.27;;;2.30;;
15142;SDS011;7672;50.834;6.286;2023-02-28T10:30:00;2.33;;;1.77;;
15142;SDS011;7672;50.834;6.286;2023-02-28T10:32:29;4.87;;;2.40;;
15142;SDS011;7672;50.834;6.286;2023-02-28T10:35:01;2.23;;;2.03;;
15142;SDS011;7672;50.834;6.286;2023-02-28T10:37:50;4.10;;;2.10;;
15142;SDS011;7672;50.834;6.286;2023-02-28T10:42:55;2.63;;;1.90;;
15142;SDS011;7672;50.834;6.286;2023-02-28T10:45:26;2.17;;;1.63;;
15142;SDS011;7672;50.834;6.286;2023-02-28T10:48:01;6.20;;;2.03;;
15142;SDS011;7672;50.834;6.286;2023-02-28T10:50:58;3.77;;;1.90;;
15142;SDS011;7672;50.834;6.286;2023-02-28T10:53:30;2.43;;;2.23;;
15142;SDS011;7672;50.834;6.286;2023-02-28T10:56:23;4.47;;;2.17;;
15142;SDS011;7672;50.834;6.286;2023-02-28T10:58:53;2.37;;;2.10;;
15142;SDS011;7672;50.834;6.286;2023-02-28T11:03:49;1.87;;;1.77;;
15142;SDS011;7672;50.834;6.286;2023-02-28T11:06:22;2.70;;;2.20;;
15142;SDS011;7672;50.834;6.286;2023-02-28T11:09:15;2.83;;;2.23;;
15142;SDS011;7672;50.834;6.286;2023-02-28T11:11:51;3.83;;;2.10;;
15142;SDS011;7672;50.834;6.286;2023-02-28T11:14:20;2.20;;;1.80;;
15142;SDS011;7672;50.834;6.286;2023-02-28T11:16:51;2.70;;;2.10;;
15142;SDS011;7672;50.834;6.286;2023-02-28T11:19:22;2.13;;;1.93;;
15142;SDS011;7672;50.834;6.286;2023-02-28T11:22:04;2.93;;;2.40;;
15142;SDS011;7672;50.834;6.286;2023-02-28T11:24:42;2.73;;;2.03;;
15142;SDS011;7672;50.834;6.286;2023-02-28T11:27:57;5.50;;;2.20;;
15142;SDS011;7672;50.834;6.286;2023-02-28T11:30:30;2.70;;;2.23;;
15142;SDS011;7672;50.834;6.286;2023-02-28T11:33:18;2.87;;;1.90;;
15142;SDS011;7672;50.834;6.286;2023-02-28T11:35:53;3.57;;;2.27;;
15142;SDS011;7672;50.834;6.286;2023-02-28T11:38:34;2.63;;;2.10;;
15142;SDS011;7672;50.834;6.286;2023-02-28T11:41:05;2.60;;;2.40;;
15142;SDS011;7672;50.834;6.286;2023-02-28T11:50:11;3.53;;;2.73;;
15142;SDS011;7672;50.834;6.286;2023-02-28T11:53:21;4.97;;;2.70;;
15142;SDS011;7672;50.834;6.286;2023-02-28T11:56:03;3.33;;;2.83;;
15142;SDS011;7672;50.834;6.286;2023-02-28T12:10:30;11.23;;;2.80;;
15142;SDS011;7672;50.834;6.286;2023-02-28T12:13:29;2.43;;;2.10;;
15142;SDS011;7672;50.834;6.286;2023-02-28T12:19:08;2.80;;;1.87;;
15142;SDS011;7672;50.834;6.286;2023-02-28T12:22:03;1.90;;;1.80;;
15142;SDS011;7672;50.834;6.286;2023-02-28T12:24:54;2.77;;;2.17;;
15142;SDS011;7672;50.834;6.286;2023-02-28T12:27:37;2.43;;;2.23;;
15142;SDS011;7672;50.834;6.286;2023-02-28T12:30:19;4.63;;;2.60;;
15142;SDS011;7672;50.834;6.286;2023-02-28T12:32:55;5.13;;;2.17;;
15142;SDS011;7672;50.834;6.286;2023-02-28T12:35:41;11.33;;;2.30;;
15142;SDS011;7672;50.834;6.286;2023-02-28T12:38:29;3.43;;;2.20;;
15142;SDS011;7672;50.834;6.286;2023-02-28T12:41:10;2.07;;;1.97;;
15142;SDS011;7672;50.834;6.286;2023-02-28T12:43:53;2.40;;;2.20;;
15142;SDS011;7672;50.834;6.286;2023-02-28T12:46:30;3.07;;;2.50;;
15142;SDS011;7672;50.834;6.286;2023-02-28T12:49:08;8.17;;;2.23;;
15142;SDS011;7672;50.834;6.286;2023-02-28T12:51:43;3.20;;;2.13;;
15142;SDS011;7672;50.834;6.286;2023-02-28T13:00:02;4.83;;;2.60;;
15142;SDS011;7672;50.834;6.286;2023-02-28T13:02:56;2.60;;;2.40;;
15142;SDS011;7672;50.834;6.286;2023-02-28T13:06:57;2.60;;;2.33;;
15142;SDS011;7672;50.834;6.286;2023-02-28T13:09:04;2.60;;;2.13;;
15142;SDS011;7672;50.834;6.286;2023-02-28T13:11:45;3.03;;;2.60;;
15142;SDS011;7672;50.834;6.286;2023-02-28T13:22:36;3.33;;;2.60;;
15142;SDS011;7672;50.834;6.286;2023-02-28T13:25:59;4.50;;;2.63;;
15142;SDS011;7672;50.834;6.286;2023-02-28T13:28:08;5.23;;;2.87;;
15142;SDS011;7672;50.834;6.286;2023-02-28T13:38:48;2.87;;;2.57;;
15142;SDS011;7672;50.834;6.286;2023-02-28T13:49:23;3.27;;;2.53;;
15142;SDS011;7672;50.834;6.286;2023-02-28T13:54:40;3.73;;;2.90;;
15142;SDS011;7672;50.834;6.286;2023-02-28T14:06:40;5.93;;;2.80;;
15142;SDS011;7672;50.834;6.286;2023-02-28T14:09:27;6.53;;;3.07;;
15142;SDS011;7672;50.834;6.286;2023-02-28T14:11:55;4.57;;;3.07;;
15142;SDS011;7672;50.834;6.286;2023-02-28T14:17:02;3.53;;;3.23;;
15142;SDS011;7672;50.834;6.286;2023-02-28T14:19:32;4.50;;;3.37;;
15142;SDS011;7672;50.834;6.286;2023-02-28T14:36:43;6.80;;;2.97;;
15142;SDS011;7672;50.834;6.286;2023-02-28T14:39:15;6.50;;;3.00;;
15142;SDS011;7672;50.834;6.286;2023-02-28T14:41:47;9.40;;;3.23;;
15142;SDS011;7672;50.834;6.286;2023-02-28T14:46:50;13.07;;;3.57;;
15142;SDS011;7672;50.834;6.286;2023-02-28T14:49:23;5.17;;;2.90;;
15142;SDS011;7672;50.834;6.286;2023-02-28T14:52:05;3.77;;;3.10;;
15142;SDS011;7672;50.834;6.286;2023-02-28T14:54:36;9.00;;;3.40;;
15142;SDS011;7672;50.834;6.286;2023-02-28T14:57:04;4.77;;;3.30;;
15142;SDS011;7672;50.834;6.286;2023-02-28T14:59:32;5.43;;;3.13;;
15142;SDS011;7672;50.834;6.286;2023-02-28T15:02:21;4.87;;;3.47;;
15142;SDS011;7672;50.834;6.286;2023-02-28T15:04:58;11.53;;;3.30;;
15142;SDS011;7672;50.834;6.286;2023-02-28T15:07:47;7.50;;;3.10;;
15142;SDS011;7672;50.834;6.286;2023-02-28T15:10:37;3.10;;;2.80;;
15142;SDS011;7672;50.834;6.286;2023-02-28T15:13:07;13.93;;;7.03;;
15142;SDS011;7672;50.834;6.286;2023-02-28T15:21:25;4.30;;;3.00;;
15142;SDS011;7672;50.834;6.286;2023-02-28T15:26:59;4.03;;;3.37;;
15142;SDS011;7672;50.834;6.286;2023-02-28T15:29:32;4.00;;;3.27;;
15142;SDS011;7672;50.834;6.286;2023-02-28T15:34:58;6.50;;;3.17;;
15142;SDS011;7672;50.834;6.286;2023-02-28T15:37:46;5.03;;;3.00;;
15142;SDS011;7672;50.834;6.286;2023-02-28T15:40:25;7.07;;;4.03;;
15142;SDS011;7672;50.834;6.286;2023-02-28T15:45:34;3.87;;;3.30;;
15142;SDS011;7672;50.834;6.286;2023-02-28T15:48:42;7.47;;;3.63;;
15142;SDS011;7672;50.834;6.286;2023-02-28T15:51:07;4.50;;;3.70;;
15142;SDS011;7672;50.834;6.286;2023-02-28T15:53:48;3.40;;;3.17;;
15142;SDS011;7672;50.834;6.286;2023-02-28T15:59:19;5.87;;;3.80;;
15142;SDS011;7672;50.834;6.286;2023-02-28T16:04:55;4.23;;;3.50;;
15142;SDS011;7672;50.834;6.286;2023-02-28T16:07:40;3.50;;;3.20;;
15142;SDS011;7672;50.834;6.286;2023-02-28T16:10:10;4.90;;;3.17;;
15142;SDS011;7672;50.834;6.286;2023-02-28T16:12:40;3.40;;;3.10;;
15142;SDS011;7672;50.834;6.286;2023-02-28T16:15:08;4.63;;;3.13;;
15142;SDS011;7672;50.834;6.286;2023-02-28T16:17:49;5.17;;;2.80;;
15142;SDS011;7672;50.834;6.286;2023-02-28T16:20:20;5.77;;;3.30;;
15142;SDS011;7672;50.834;6.286;2023-02-28T16:22:51;5.53;;;3.50;;
15142;SDS011;7672;50.834;6.286;2023-02-28T16:25:19;5.77;;;3.60;;
15142;SDS011;7672;50.834;6.286;2023-02-28T16:27:52;3.83;;;2.73;;
15142;SDS011;7672;50.834;6.286;2023-02-28T16:30:22;4.83;;;3.43;;
15142;SDS011;7672;50.834;6.286;2023-02-28T16:32:53;5.30;;;2.70;;
15142;SDS011;7672;50.834;6.286;2023-02-28T16:35:22;5.53;;;3.33;;
15142;SDS011;7672;50.834;6.286;2023-02-28T16:37:52;7.83;;;2.83;;
15142;SDS011;7672;50.834;6.286;2023-02-28T16:40:21;4.83;;;2.43;;
15142;SDS011;7672;50.834;6.286;2023-02-28T16:42:55;3.20;;;2.80;;
15142;SDS011;7672;50.834;6.286;2023-02-28T16:45:26;4.90;;;3.50;;
15142;SDS011;7672;50.834;6.286;2023-02-28T16:47:55;4.60;;;3.07;;
15142;SDS011;7672;50.834;6.286;2023-02-28T16:50:26;4.70;;;3.20;;
15142;SDS011;7672;50.834;6.286;2023-02-28T16:52:56;4.03;;;3.37;;
15142;SDS011;7672;50.834;6.286;2023-02-28T16:55:23;4.00;;;2.70;;
15142;SDS011;7672;50.834;6.286;2023-02-28T16:57:53;3.53;;;3.23;;
15142;SDS011;7672;50.834;6.286;2023-02-28T17:00:23;3.43;;;2.57;;
15142;SDS011;7672;50.834;6.286;2023-02-28T17:02:51;4.63;;;3.10;;
15142;SDS011;7672;50.834;6.286;2023-02-28T17:05:18;14.60;;;3.43;;
15142;SDS011;7672;50.834;6.286;2023-02-28T17:07:46;3.47;;;2.60;;
15142;SDS011;7672;50.834;6.286;2023-02-28T17:12:45;6.13;;;3.00;;
15142;SDS011;7672;50.834;6.286;2023-02-28T17:15:12;4.57;;;3.10;;
15142;SDS011;7672;50.834;6.286;2023-02-28T17:17:42;11.27;;;3.47;;
15142;SDS011;7672;50.834;6.286;2023-02-28T17:20:20;5.33;;;2.90;;
15142;SDS011;7672;50.834;6.286;2023-02-28T17:22:49;7.40;;;3.13;;
15142;SDS011;7672;50.834;6.286;2023-02-28T17:25:17;12.47;;;3.30;;
15142;SDS011;7672;50.834;6.286;2023-02-28T17:27:44;6.20;;;3.10;;
15142;SDS011;7672;50.834;6.286;2023-02-28T17:30:16;12.47;;;3.27;;
15142;SDS011;7672;50.834;6.286;2023-02-28T17:32:46;10.50;;;4.35;;
15142;SDS011;7672;50.834;6.286;2023-02-28T17:35:13;15.10;;;3.37;;
15142;SDS011;7672;50.834;6.286;2023-02-28T17:37:41;8.17;;;3.60;;
15142;SDS011;7672;50.834;6.286;2023-02-28T17:40:14;8.67;;;3.07;;
15142;SDS011;7672;50.834;6.286;2023-02-28T17:42:47;7.73;;;3.23;;
15142;SDS011;7672;50.834;6.286;2023-02-28T17:45:14;5.23;;;3.23;;
15142;SDS011;7672;50.834;6.286;2023-02-28T17:47:42;3.83;;;2.53;;
15142;SDS011;7672;50.834;6.286;2023-02-28T17:50:14;10.27;;;3.20;;
15142;SDS011;7672;50.834;6.286;2023-02-28T17:52:47;3.57;;;2.73;;
15142;SDS011;7672;50.834;6.286;2023-02-28T17:55:16;4.30;;;2.70;;
15142;SDS011;7672;50.834;6.286;2023-02-28T17:57:45;4.13;;;3.67;;
15142;SDS011;7672;50.834;6.286;2023-02-28T18:00:12;3.67;;;3.27;;
15142;SDS011;7672;50.834;6.286;2023-02-28T18:02:42;3.70;;;2.93;;
15142;SDS011;7672;50.834;6.286;2023-02-28T18:05:10;4.27;;;3.07;;
15142;SDS011;7672;50.834;6.286;2023-02-28T18:07:37;4.00;;;2.83;;
15142;SDS011;7672;50.834;6.286;2023-02-28T18:10:05;5.40;;;3.63;;
15142;SDS011;7672;50.834;6.286;2023-02-28T18:12:41;3.53;;;3.13;;
15142;SDS011;7672;50.834;6.286;2023-02-28T18:15:08;4.17;;;3.30;;
15142;SDS011;7672;50.834;6.286;2023-02-28T18:17:35;4.53;;;3.73;;